Time;durP1;ratioP1;P1;durP2;ratioP2;P2;SDS_P1;SDS_P2;PMS_P1;PMS_P2;Temp;Humidity;BMP_temperature;BMP_pressure;BME280_temperature;BME280_humidity;BME280_pressure;Samples;Min_cycle;Max_cycle;Signal;HPM_P1;HPM_P2
2021/11/19 00:01:16;;;;;;;26.40;24.00;;;4.80;99.90;;;;;;5051572;28;20973;-72
2021/11/19 00:03:43;;;;;;;26.77;24.50;;;4.80;99.90;;;;;;5051824;28;20513;-72
2021/11/19 00:06:10;;;;;;;25.20;23.07;;;4.80;99.90;;;;;;5051293;28;20452;-72
2021/11/19 00:08:38;;;;;;;25.27;23.13;;;4.90;99.90;;;;;;5051729;28;20445;-72
2021/11/19 00:11:08;;;;;;;26.03;23.83;;;4.90;99.90;;;;;;5051340;28;20460;-72
2021/11/19 00:13:35;;;;;;;25.80;23.67;;;4.90;99.90;;;;;;5051400;28;20973;-71
2021/11/19 00:16:04;;;;;;;24.87;22.77;;;4.90;99.90;;;;;;5051557;28;20455;-71
2021/11/19 00:18:31;;;;;;;24.93;22.33;;;4.80;99.90;;;;;;5051206;28;20492;-72
2021/11/19 00:20:57;;;;;;;26.50;24.20;;;4.80;99.90;;;;;;5051306;28;20791;-72
2021/11/19 00:23:25;;;;;;;28.40;26.00;;;4.70;99.90;;;;;;5051000;28;20452;-70
2021/11/19 00:25:52;;;;;;;26.93;24.07;;;4.70;99.90;;;;;;5051138;28;20807;-70
2021/11/19 00:28:18;;;;;;;26.70;24.30;;;4.70;99.90;;;;;;5051236;28;20459;-70
2021/11/19 00:30:47;;;;;;;27.67;24.97;;;4.70;99.90;;;;;;5050949;28;20472;-70
2021/11/19 00:33:15;;;;;;;27.57;25.00;;;4.70;99.90;;;;;;5050894;28;20459;-70
2021/11/19 00:35:45;;;;;;;28.40;25.63;;;4.70;99.90;;;;;;5050919;28;20464;-70
2021/11/19 00:38:13;;;;;;;27.17;24.77;;;4.60;99.90;;;;;;5051021;28;20455;-70
2021/11/19 00:40:52;;;;;;;26.83;24.33;;;4.60;99.90;;;;;;5050881;28;20454;-72
2021/11/19 00:43:19;;;;;;;29.67;26.80;;;4.60;99.90;;;;;;5050860;28;20793;-73
2021/11/19 00:45:47;;;;;;;28.97;26.53;;;4.60;99.90;;;;;;5051140;28;20455;-72
2021/11/19 00:48:17;;;;;;;28.77;26.33;;;4.50;99.90;;;;;;5050913;28;20451;-74
2021/11/19 00:50:48;;;;;;;24.03;22.03;;;4.50;99.90;;;;;;5050905;28;20444;-72
2021/11/19 00:53:14;;;;;;;28.03;25.43;;;4.50;99.90;;;;;;5050619;28;20480;-71
2021/11/19 00:55:41;;;;;;;28.13;25.80;;;4.50;99.90;;;;;;5051115;28;20466;-71
2021/11/19 00:58:09;;;;;;;28.63;25.83;;;4.40;99.90;;;;;;5050019;28;20931;-71
2021/11/19 01:00:41;;;;;;;30.17;27.43;;;4.40;99.90;;;;;;5050711;28;20446;-72
2021/11/19 01:03:07;;;;;;;29.37;26.20;;;4.40;99.90;;;;;;5050794;28;20481;-72
2021/11/19 01:05:36;;;;;;;28.10;25.30;;;4.40;99.90;;;;;;5050697;28;20447;-71
2021/11/19 01:08:03;;;;;;;27.40;25.10;;;4.40;99.90;;;;;;5050858;28;20448;-70
2021/11/19 01:10:32;;;;;;;30.27;27.70;;;4.40;99.90;;;;;;5050401;28;20454;-71
2021/11/19 01:12:59;;;;;;;30.50;27.70;;;4.40;99.90;;;;;;5050449;28;20442;-71
2021/11/19 01:15:31;;;;;;;30.50;27.60;;;4.40;99.90;;;;;;5050837;28;20452;-71
2021/11/19 01:18:00;;;;;;;28.17;25.87;;;4.40;99.90;;;;;;5050727;28;20807;-72
2021/11/19 01:20:35;;;;;;;28.77;26.27;;;4.40;99.90;;;;;;5050336;28;20506;-71
2021/11/19 01:23:10;;;;;;;27.50;24.60;;;4.40;99.90;;;;;;5050229;28;20491;-72
2021/11/19 01:25:38;;;;;;;28.63;26.10;;;4.40;99.90;;;;;;5050539;28;20550;-72
2021/11/19 01:28:06;;;;;;;29.67;26.83;;;4.30;99.90;;;;;;5050690;28;20480;-72
2021/11/19 01:30:36;;;;;;;30.07;27.33;;;4.30;99.90;;;;;;5050192;28;20467;-72
2021/11/19 01:33:04;;;;;;;25.83;23.73;;;4.30;99.90;;;;;;5050351;28;20463;-72
2021/11/19 01:35:31;;;;;;;24.50;22.53;;;4.20;99.90;;;;;;5050300;28;20452;-73
2021/11/19 01:37:58;;;;;;;24.40;22.23;;;4.20;99.90;;;;;;5051032;28;20520;-73
2021/11/19 01:40:29;;;;;;;25.67;23.50;;;4.20;99.90;;;;;;5050582;28;20490;-70
2021/11/19 01:42:58;;;;;;;25.23;23.20;;;4.10;99.90;;;;;;5051043;28;20465;-71
2021/11/19 01:45:31;;;;;;;23.67;21.70;;;4.10;99.90;;;;;;5050569;28;20451;-71
2021/11/19 01:47:58;;;;;;;25.17;23.07;;;4.10;99.90;;;;;;5050651;28;20883;-70
2021/11/19 01:50:30;;;;;;;26.10;23.83;;;4.10;99.90;;;;;;5050589;28;20451;-71
2021/11/19 01:53:02;;;;;;;27.17;24.73;;;4.10;99.90;;;;;;5050423;28;20989;-70
2021/11/19 01:55:35;;;;;;;25.73;23.53;;;4.00;99.90;;;;;;5050707;28;20468;-71
2021/11/19 01:58:05;;;;;;;25.70;23.43;;;4.00;99.90;;;;;;5050584;28;20453;-71
2021/11/19 02:00:36;;;;;;;25.20;22.90;;;4.00;99.90;;;;;;5050607;28;20487;-71
2021/11/19 02:03:04;;;;;;;25.57;23.10;;;4.00;99.90;;;;;;5050323;28;20827;-71
2021/11/19 02:05:34;;;;;;;25.27;23.40;;;4.00;99.90;;;;;;5050471;28;20444;-71
2021/11/19 02:08:08;;;;;;;27.40;24.70;;;4.00;99.90;;;;;;5051536;28;20458;-70
2021/11/19 02:10:44;;;;;;;27.43;25.23;;;4.00;99.90;;;;;;5053900;28;20448;-70
2021/11/19 02:13:28;;;;;;;27.87;25.37;;;4.00;99.90;;;;;;5054044;28;20870;-70
2021/11/19 02:15:57;;;;;;;25.53;23.43;;;4.00;99.90;;;;;;5054084;28;20516;-70
2021/11/19 02:18:27;;;;;;;27.97;25.57;;;3.90;99.90;;;;;;5053989;28;20455;-70
2021/11/19 02:20:59;;;;;;;27.40;25.00;;;3.90;99.90;;;;;;5054126;28;20484;-72
2021/11/19 02:23:30;;;;;;;27.63;25.23;;;3.90;99.90;;;;;;5053862;28;20459;-72
2021/11/19 02:26:02;;;;;;;27.40;25.20;;;3.90;99.90;;;;;;5053789;28;20483;-72
2021/11/19 02:28:32;;;;;;;28.90;26.33;;;3.90;99.90;;;;;;5053881;28;20459;-69
2021/11/19 02:31:01;;;;;;;28.93;26.20;;;3.90;99.90;;;;;;5053982;28;20822;-71
2021/11/19 02:33:30;;;;;;;29.20;26.50;;;3.80;99.90;;;;;;5053878;28;20816;-70
2021/11/19 02:35:59;;;;;;;28.30;26.07;;;3.80;99.90;;;;;;5053805;28;20455;-72
2021/11/19 02:38:32;;;;;;;28.37;25.77;;;3.90;99.90;;;;;;5053593;28;20989;-72
2021/11/19 02:41:00;;;;;;;29.37;26.80;;;3.80;99.90;;;;;;5053225;28;21057;-71
2021/11/19 02:43:36;;;;;;;29.70;27.10;;;3.90;99.90;;;;;;5053642;28;20485;-71
2021/11/19 02:46:04;;;;;;;30.03;27.40;;;3.90;99.90;;;;;;5053451;28;20436;-71
2021/11/19 02:48:33;;;;;;;29.63;27.03;;;3.90;99.90;;;;;;5053557;28;20448;-72
2021/11/19 02:51:03;;;;;;;30.00;27.40;;;3.90;99.90;;;;;;5053370;28;20930;-72
2021/11/19 02:53:30;;;;;;;28.90;25.93;;;3.90;99.90;;;;;;5052957;28;21035;-72
2021/11/19 02:55:58;;;;;;;27.27;24.87;;;3.80;99.90;;;;;;5053495;28;20456;-72
2021/11/19 02:58:33;;;;;;;26.93;24.57;;;3.80;99.90;;;;;;5053282;28;20456;-71
2021/11/19 03:01:03;;;;;;;26.77;24.43;;;3.80;99.90;;;;;;5053000;28;20486;-71
2021/11/19 03:03:31;;;;;;;29.93;26.93;;;3.80;99.90;;;;;;5053346;28;20448;-69
2021/11/19 03:05:57;;;;;;;26.30;24.00;;;3.80;99.90;;;;;;5053175;28;20456;-69
2021/11/19 03:08:24;;;;;;;28.83;25.93;;;3.70;99.90;;;;;;5053257;28;20455;-69
2021/11/19 03:10:55;;;;;;;31.93;29.10;;;3.60;99.90;;;;;;5053348;28;20459;-71
2021/11/19 03:13:23;;;;;;;30.93;28.20;;;3.60;99.90;;;;;;5052793;28;20449;-70
2021/11/19 03:15:51;;;;;;;30.40;27.40;;;3.60;99.90;;;;;;5053027;28;20455;-70
2021/11/19 03:18:21;;;;;;;31.27;28.47;;;3.60;99.90;;;;;;5052819;28;20455;-70
2021/11/19 03:20:50;;;;;;;32.60;29.47;;;3.60;99.90;;;;;;5052016;28;20566;-71
2021/11/19 03:23:17;;;;;;;32.13;29.20;;;3.60;99.90;;;;;;5052824;28;20464;-70
2021/11/19 03:25:45;;;;;;;30.73;28.00;;;3.50;99.90;;;;;;5052876;28;20452;-70
2021/11/19 03:28:14;;;;;;;33.20;30.30;;;3.60;99.90;;;;;;5052742;28;20456;-70
2021/11/19 03:30:43;;;;;;;32.57;29.77;;;3.50;99.90;;;;;;5052469;28;20476;-70
2021/11/19 03:33:14;;;;;;;35.03;31.33;;;3.50;99.90;;;;;;5052506;28;20448;-70
2021/11/19 03:35:41;;;;;;;31.00;28.50;;;3.40;99.90;;;;;;5052856;28;20433;-71
2021/11/19 03:38:08;;;;;;;31.40;28.50;;;3.50;99.90;;;;;;5052699;28;20452;-70
2021/11/19 03:40:41;;;;;;;31.57;28.77;;;3.50;99.90;;;;;;5052361;28;20488;-71
2021/11/19 03:43:11;;;;;;;35.30;32.20;;;3.40;99.90;;;;;;5052394;28;20670;-71
2021/11/19 03:45:41;;;;;;;33.20;30.50;;;3.30;99.90;;;;;;5052487;28;20814;-79
2021/11/19 03:48:08;;;;;;;35.80;32.57;;;3.30;99.90;;;;;;5052840;28;20458;-81
2021/11/19 03:50:40;;;;;;;36.03;32.40;;;3.20;99.90;;;;;;5052125;28;20448;-72
2021/11/19 03:53:08;;;;;;;34.73;31.77;;;3.20;99.90;;;;;;5052075;28;20517;-71
2021/11/19 03:55:37;;;;;;;35.93;32.87;;;3.30;99.90;;;;;;5052318;28;20822;-72
2021/11/19 03:58:05;;;;;;;36.57;33.43;;;3.30;99.90;;;;;;5052317;28;20457;-72
2021/11/19 04:00:34;;;;;;;35.73;32.73;;;3.30;99.90;;;;;;5052045;28;20487;-72
2021/11/19 04:03:02;;;;;;;33.87;31.23;;;3.30;99.90;;;;;;5051818;28;20444;-72
2021/11/19 04:05:30;;;;;;;33.47;30.83;;;3.20;99.90;;;;;;5052126;28;20440;-73
2021/11/19 04:07:58;;;;;;;36.93;33.50;;;3.10;99.90;;;;;;5051953;28;20683;-72
2021/11/19 04:10:25;;;;;;;33.47;30.60;;;3.10;99.90;;;;;;5051795;28;20990;-73
2021/11/19 04:12:52;;;;;;;35.17;31.83;;;3.10;99.90;;;;;;5052210;28;20449;-71
2021/11/19 04:15:22;;;;;;;34.63;31.50;;;3.20;99.90;;;;;;5051668;28;20460;-71
2021/11/19 04:17:49;;;;;;;35.37;32.40;;;3.10;99.90;;;;;;5051897;28;20514;-72
2021/11/19 04:20:20;;;;;;;35.87;32.67;;;3.10;99.90;;;;;;5051663;28;20876;-72
2021/11/19 04:22:47;;;;;;;33.80;30.87;;;3.20;99.90;;;;;;5051626;28;20486;-72
2021/11/19 04:25:18;;;;;;;34.70;31.40;;;3.10;99.90;;;;;;5051366;28;20458;-71
2021/11/19 04:27:46;;;;;;;35.07;31.70;;;3.10;99.90;;;;;;5051764;28;20458;-71
2021/11/19 04:30:17;;;;;;;33.40;30.50;;;3.10;99.90;;;;;;5051420;28;20455;-72
2021/11/19 04:32:44;;;;;;;33.10;29.87;;;3.10;99.90;;;;;;5050601;28;20942;-72
2021/11/19 04:35:12;;;;;;;33.50;30.90;;;3.10;99.90;;;;;;5051367;28;20454;-73
2021/11/19 04:37:39;;;;;;;32.13;29.63;;;3.00;99.90;;;;;;5051647;28;20460;-71
2021/11/19 04:40:07;;;;;;;33.23;30.70;;;3.00;99.90;;;;;;5051308;28;20493;-71
2021/11/19 04:42:36;;;;;;;32.90;30.50;;;3.00;99.90;;;;;;5051236;28;20449;-72
2021/11/19 04:45:04;;;;;;;34.43;31.53;;;3.00;99.90;;;;;;5051159;28;20449;-71
2021/11/19 04:47:31;;;;;;;32.37;29.57;;;2.90;99.90;;;;;;5051265;28;20454;-72
2021/11/19 04:49:57;;;;;;;31.47;29.13;;;2.90;99.90;;;;;;5051138;28;20453;-72
2021/11/19 04:52:24;;;;;;;33.10;30.63;;;2.90;99.90;;;;;;5050903;28;21011;-72
2021/11/19 04:54:51;;;;;;;33.63;31.13;;;2.90;99.90;;;;;;5051033;28;20958;-73
2021/11/19 04:57:18;;;;;;;37.53;34.50;;;2.90;99.90;;;;;;5051217;28;20449;-71
2021/11/19 04:59:46;;;;;;;36.17;33.47;;;2.90;99.90;;;;;;5051073;28;20515;-71
2021/11/19 05:02:20;;;;;;;36.13;33.13;;;2.90;99.90;;;;;;5051063;28;20446;-71
2021/11/19 05:04:47;;;;;;;35.47;32.60;;;3.00;99.90;;;;;;5050950;28;20453;-72
2021/11/19 05:07:14;;;;;;;35.30;32.57;;;3.00;99.90;;;;;;5050912;28;20456;-72
2021/11/19 05:09:42;;;;;;;34.43;31.80;;;3.00;99.90;;;;;;5050751;28;20449;-72
2021/11/19 05:12:12;;;;;;;37.30;34.23;;;2.90;99.90;;;;;;5051182;28;20448;-72
2021/11/19 05:14:39;;;;;;;38.13;34.90;;;2.90;99.90;;;;;;5050810;28;20462;-72
2021/11/19 05:17:10;;;;;;;38.00;34.80;;;2.80;99.90;;;;;;5050713;28;20458;-72
2021/11/19 05:19:37;;;;;;;39.13;36.03;;;2.90;99.90;;;;;;5051214;28;20457;-72
2021/11/19 05:22:05;;;;;;;35.47;32.60;;;2.90;99.90;;;;;;5050827;28;20857;-72
2021/11/19 05:24:32;;;;;;;37.33;34.33;;;2.80;99.90;;;;;;5050835;28;20441;-73
2021/11/19 05:26:59;;;;;;;38.60;35.20;;;2.80;99.90;;;;;;5050538;28;20451;-71
2021/11/19 05:29:26;;;;;;;38.50;35.17;;;2.90;99.90;;;;;;5050592;28;20451;-71
2021/11/19 05:31:53;;;;;;;38.00;34.90;;;3.00;99.90;;;;;;5050487;28;20476;-71
2021/11/19 05:34:22;;;;;;;38.53;35.10;;;3.10;99.90;;;;;;5050896;28;20448;-72
2021/11/19 05:36:50;;;;;;;36.53;33.50;;;3.10;99.90;;;;;;5050785;28;20452;-70
2021/11/19 05:39:17;;;;;;;35.67;32.73;;;3.10;99.90;;;;;;5050414;28;20448;-70
2021/11/19 05:41:44;;;;;;;36.20;33.10;;;3.10;99.90;;;;;;5050843;28;20520;-71
2021/11/19 05:44:11;;;;;;;35.60;32.33;;;3.10;99.90;;;;;;5053669;28;20451;-71
2021/11/19 05:46:41;;;;;;;37.50;33.70;;;3.00;99.90;;;;;;5054519;28;20450;-71
2021/11/19 05:49:10;;;;;;;33.17;30.67;;;3.00;99.90;;;;;;5054692;28;20450;-72
2021/11/19 05:51:40;;;;;;;33.37;30.67;;;3.00;99.90;;;;;;5054320;28;20450;-71
2021/11/19 05:54:09;;;;;;;34.83;31.93;;;2.90;99.90;;;;;;5054456;28;20942;-71
2021/11/19 05:56:36;;;;;;;34.70;31.87;;;2.90;99.90;;;;;;5054690;28;20804;-70
2021/11/19 05:59:02;;;;;;;35.17;32.50;;;2.90;99.90;;;;;;5054187;28;20541;-70
2021/11/19 06:01:29;;;;;;;37.80;34.80;;;2.90;99.90;;;;;;5054859;28;20490;-70
2021/11/19 06:03:56;;;;;;;39.90;36.40;;;3.00;99.90;;;;;;5054403;28;20450;-70
2021/11/19 06:06:23;;;;;;;38.27;35.10;;;3.00;99.90;;;;;;5054086;28;20916;-70
2021/11/19 06:08:52;;;;;;;37.97;34.87;;;3.00;99.90;;;;;;5054077;28;20458;-70
2021/11/19 06:11:22;;;;;;;38.80;35.67;;;3.00;99.90;;;;;;5053930;28;20454;-70
2021/11/19 06:13:53;;;;;;;38.33;35.03;;;3.00;99.90;;;;;;5054216;28;20477;-70
2021/11/19 06:16:24;;;;;;;38.63;35.33;;;3.00;99.90;;;;;;5054230;28;20455;-70
2021/11/19 06:18:54;;;;;;;39.03;35.87;;;3.10;99.90;;;;;;5054288;28;20434;-70
2021/11/19 06:21:24;;;;;;;36.10;32.90;;;3.10;99.90;;;;;;5053740;28;20993;-70
2021/11/19 06:23:54;;;;;;;40.07;36.67;;;3.20;99.90;;;;;;5053867;28;20448;-70
2021/11/19 06:26:24;;;;;;;37.90;34.73;;;3.30;99.90;;;;;;5053773;28;20448;-71
2021/11/19 06:28:52;;;;;;;36.27;33.43;;;3.40;99.90;;;;;;5053520;28;20474;-72
2021/11/19 06:31:22;;;;;;;34.17;31.70;;;3.50;99.90;;;;;;5054001;28;20502;-70
2021/11/19 06:33:49;;;;;;;38.37;35.10;;;3.60;99.90;;;;;;5053607;28;20455;-70
2021/11/19 06:36:16;;;;;;;39.77;35.83;;;3.70;99.90;;;;;;5053743;28;20455;-70
2021/11/19 06:38:46;;;;;;;49.23;43.87;;;3.60;99.90;;;;;;5053604;28;20479;-70
2021/11/19 06:41:14;;;;;;;40.67;36.47;;;3.60;99.90;;;;;;5053327;28;20491;-70
2021/11/19 06:43:42;;;;;;;48.63;38.70;;;3.70;99.90;;;;;;5053550;28;20455;-71
2021/11/19 06:46:10;;;;;;;46.10;37.73;;;3.60;99.90;;;;;;5053506;28;20478;-70
2021/11/19 06:48:37;;;;;;;35.33;31.87;;;3.60;99.90;;;;;;5053534;28;20452;-70
2021/11/19 06:51:05;;;;;;;33.40;30.40;;;3.70;99.90;;;;;;5053197;28;20818;-70
2021/11/19 06:53:33;;;;;;;40.53;36.37;;;3.60;99.90;;;;;;5053388;28;20682;-70
2021/11/19 06:56:00;;;;;;;37.67;33.70;;;3.60;99.90;;;;;;5052396;28;20456;-70
2021/11/19 06:58:29;;;;;;;34.37;31.27;;;3.60;99.90;;;;;;5053013;28;20454;-70
2021/11/19 07:00:57;;;;;;;32.17;29.47;;;3.60;99.90;;;;;;5053078;28;20481;-70
2021/11/19 07:03:25;;;;;;;30.83;28.50;;;3.60;99.90;;;;;;5053192;28;20456;-70
2021/11/19 07:05:52;;;;;;;31.33;28.67;;;3.60;99.90;;;;;;5053149;28;20463;-69
2021/11/19 07:08:19;;;;;;;32.10;29.40;;;3.60;99.90;;;;;;5052960;28;20466;-69
2021/11/19 07:10:48;;;;;;;34.50;31.20;;;3.70;99.90;;;;;;5053005;28;20471;-71
2021/11/19 07:13:15;;;;;;;31.80;28.70;;;3.70;99.90;;;;;;5052862;28;20463;-75
2021/11/19 07:15:43;;;;;;;30.83;27.80;;;3.70;99.90;;;;;;5053144;28;20440;-69
2021/11/19 07:18:10;;;;;;;34.00;29.50;;;3.70;99.90;;;;;;5052715;28;20959;-69
2021/11/19 07:20:38;;;;;;;31.03;27.97;;;3.70;99.90;;;;;;5052921;28;20495;-71
2021/11/19 07:23:08;;;;;;;28.20;25.87;;;3.80;99.90;;;;;;5052953;28;20456;-71
2021/11/19 07:25:35;;;;;;;26.70;24.27;;;3.90;99.90;;;;;;5052494;28;20462;-71
2021/11/19 07:28:02;;;;;;;28.43;26.00;;;3.90;99.90;;;;;;5052961;28;20451;-71
2021/11/19 07:30:32;;;;;;;28.10;25.80;;;3.90;99.90;;;;;;5052696;28;20475;-70
2021/11/19 07:33:00;;;;;;;26.20;23.50;;;4.00;99.90;;;;;;5052485;28;20460;-69
2021/11/19 07:35:27;;;;;;;26.90;24.47;;;4.00;99.90;;;;;;5052722;28;20451;-70
2021/11/19 07:37:54;;;;;;;29.90;27.40;;;4.10;99.90;;;;;;5052421;28;20444;-70
2021/11/19 07:40:23;;;;;;;29.17;26.77;;;4.10;99.90;;;;;;5052522;28;20448;-70
2021/11/19 07:42:50;;;;;;;31.17;28.40;;;4.10;99.90;;;;;;5052259;28;20839;-70
2021/11/19 07:45:18;;;;;;;35.10;31.90;;;4.10;99.90;;;;;;5052025;28;21008;-70
2021/11/19 07:47:46;;;;;;;33.57;30.57;;;4.20;99.90;;;;;;5052423;28;20459;-70
2021/11/19 07:50:18;;;;;;;33.70;30.80;;;4.30;99.90;;;;;;5052375;28;20460;-74
2021/11/19 07:52:44;;;;;;;31.60;29.07;;;4.30;99.90;;;;;;5052066;28;20484;-71
2021/11/19 07:55:11;;;;;;;31.13;28.23;;;4.40;99.90;;;;;;5052155;28;20449;-71
2021/11/19 07:57:38;;;;;;;31.10;28.23;;;4.60;99.90;;;;;;5051844;28;20452;-71
2021/11/19 08:00:08;;;;;;;33.90;30.90;;;4.60;99.90;;;;;;5051788;28;20448;-71
2021/11/19 08:02:35;;;;;;;30.70;28.00;;;4.60;99.90;;;;;;5051968;28;20909;-74
2021/11/19 08:05:03;;;;;;;32.23;29.10;;;4.70;99.90;;;;;;5051653;28;20453;-74
2021/11/19 08:07:32;;;;;;;28.27;25.70;;;4.80;99.90;;;;;;5051589;28;20514;-75
2021/11/19 08:09:59;;;;;;;30.57;27.70;;;4.80;99.90;;;;;;5051799;28;20823;-74
2021/11/19 08:12:26;;;;;;;28.20;25.73;;;4.90;99.90;;;;;;5051716;28;20464;-75
2021/11/19 08:14:53;;;;;;;30.77;27.87;;;4.90;99.90;;;;;;5051736;28;20456;-75
2021/11/19 08:17:25;;;;;;;27.70;25.23;;;4.90;99.90;;;;;;5051631;28;20448;-71
2021/11/19 08:19:52;;;;;;;27.43;25.13;;;4.90;99.90;;;;;;5047288;28;20506;-72
2021/11/19 08:22:19;;;;;;;29.40;26.50;;;5.10;99.90;;;;;;5049327;28;20484;-71
2021/11/19 08:24:49;;;;;;;29.23;24.10;;;5.10;99.90;;;;;;5051063;28;20463;-70
2021/11/19 08:27:17;;;;;;;32.53;26.27;;;5.20;99.90;;;;;;5069050;28;20470;-70
2021/11/19 08:29:49;;;;;;;29.93;25.17;;;5.30;99.90;;;;;;5051328;28;20471;-71
2021/11/19 08:32:17;;;;;;;26.63;23.63;;;5.30;99.90;;;;;;5051328;28;20456;-71
2021/11/19 08:34:45;;;;;;;28.97;25.63;;;5.30;99.90;;;;;;5051357;28;20947;-71
2021/11/19 08:37:12;;;;;;;28.50;23.83;;;5.40;99.90;;;;;;5049208;28;20467;-71
2021/11/19 08:39:39;;;;;;;25.90;23.70;;;5.40;99.90;;;;;;5051052;28;20832;-71
2021/11/19 08:42:09;;;;;;;24.37;22.40;;;5.50;99.90;;;;;;5050959;28;20481;-71
2021/11/19 08:44:36;;;;;;;23.17;21.37;;;5.50;99.90;;;;;;5051130;28;20475;-71
2021/11/19 08:47:04;;;;;;;23.83;22.03;;;5.50;99.90;;;;;;5051373;28;20440;-71
2021/11/19 08:49:34;;;;;;;22.83;21.03;;;5.50;99.90;;;;;;5051029;28;20448;-70
2021/11/19 08:52:01;;;;;;;23.77;21.73;;;5.50;99.90;;;;;;5050957;28;20487;-71
2021/11/19 08:54:28;;;;;;;24.33;22.20;;;5.40;99.90;;;;;;5051085;28;20968;-71
2021/11/19 08:57:04;;;;;;;27.53;25.23;;;5.40;99.90;;;;;;5050898;28;20941;-71
2021/11/19 08:59:34;;;;;;;23.60;21.70;;;5.50;99.90;;;;;;5050990;28;20453;-71
2021/11/19 09:02:02;;;;;;;26.27;24.00;;;5.60;99.90;;;;;;5050790;28;20858;-71
2021/11/19 09:04:29;;;;;;;25.40;23.37;;;5.60;99.90;;;;;;5050825;28;20452;-71
2021/11/19 09:06:57;;;;;;;23.50;21.50;;;5.70;99.90;;;;;;5051001;28;20798;-71
2021/11/19 09:09:25;;;;;;;23.30;21.50;;;5.70;99.90;;;;;;5050895;28;20447;-71
2021/11/19 09:11:52;;;;;;;25.27;23.27;;;5.60;99.90;;;;;;5050646;28;20451;-71
2021/11/19 09:14:19;;;;;;;24.17;22.27;;;5.80;99.90;;;;;;5050776;28;20448;-71
2021/11/19 09:16:57;;;;;;;25.50;23.30;;;6.00;99.90;;;;;;5050804;28;20445;-71
2021/11/19 09:19:29;;;;;;;26.73;24.63;;;6.30;99.90;;;;;;5050324;28;20447;-71
2021/11/19 09:22:01;;;;;;;28.30;25.83;;;6.20;99.90;;;;;;5050672;28;20500;-71
2021/11/19 09:24:32;;;;;;;25.93;23.73;;;6.10;99.90;;;;;;5050607;28;20446;-72
2021/11/19 09:27:01;;;;;;;26.27;24.03;;;6.10;99.90;;;;;;5050570;28;20464;-71
2021/11/19 09:29:30;;;;;;;27.33;24.60;;;6.00;99.90;;;;;;5050581;28;20448;-71
2021/11/19 09:32:00;;;;;;;28.10;25.60;;;5.90;99.90;;;;;;5050493;28;20483;-71
2021/11/19 09:34:29;;;;;;;24.00;22.23;;;5.90;99.90;;;;;;5050401;28;20460;-71
2021/11/19 09:36:56;;;;;;;28.23;24.77;;;5.90;99.90;;;;;;5050488;28;20447;-70
2021/11/19 09:39:26;;;;;;;27.50;25.20;;;5.90;99.90;;;;;;5050473;28;20447;-71
2021/11/19 09:41:59;;;;;;;29.60;26.80;;;6.00;99.90;;;;;;5050182;28;20562;-70
2021/11/19 09:45:08;;;;;;;27.67;25.40;;;6.00;99.90;;;;;;5050444;28;20457;-71
2021/11/19 09:48:03;;;;;;;26.33;23.73;;;6.00;99.90;;;;;;5050450;28;20451;-72
2021/11/19 09:51:03;;;;;;;26.10;23.90;;;6.00;99.90;;;;;;5050268;28;20473;-71
2021/11/19 09:53:57;;;;;;;29.50;26.80;;;6.00;99.90;;;;;;5049998;28;20513;-72
2021/11/19 09:56:50;;;;;;;29.50;27.00;;;6.00;99.90;;;;;;5049883;28;20446;-72
2021/11/19 09:59:27;;;;;;;27.37;25.07;;;6.00;99.90;;;;;;5050094;28;20478;-71
2021/11/19 10:02:29;;;;;;;29.83;26.90;;;5.90;99.90;;;;;;5049851;28;20485;-71
2021/11/19 10:05:35;;;;;;;30.30;27.20;;;6.00;99.90;;;;;;5049988;28;20445;-71
2021/11/19 10:08:17;;;;;;;31.60;26.80;;;6.10;99.90;;;;;;5048855;28;20535;-70
2021/11/19 10:10:56;;;;;;;28.87;26.07;;;6.50;99.90;;;;;;5049768;28;20451;-71
2021/11/19 10:13:33;;;;;;;28.13;25.30;;;6.60;99.90;;;;;;5050092;28;20489;-73
2021/11/19 10:16:12;;;;;;;26.57;24.17;;;7.00;99.90;;;;;;5049917;28;20447;-73
2021/11/19 10:18:44;;;;;;;25.43;23.23;;;7.20;99.90;;;;;;5049870;28;20447;-74
2021/11/19 10:21:15;;;;;;;26.13;23.53;;;7.20;99.90;;;;;;5049715;28;20440;-73
2021/11/19 10:23:47;;;;;;;25.63;22.90;;;7.30;99.90;;;;;;5049954;28;20798;-73
2021/11/19 10:26:19;;;;;;;26.10;23.67;;;7.20;99.90;;;;;;5049822;28;20448;-73
2021/11/19 10:28:49;;;;;;;25.97;23.50;;;7.30;99.90;;;;;;5049915;28;20455;-73
2021/11/19 10:31:18;;;;;;;29.97;27.50;;;7.30;99.90;;;;;;5052637;28;20467;-72
2021/11/19 10:33:51;;;;;;;28.90;26.40;;;7.30;99.90;;;;;;5053174;28;20930;-72
2021/11/19 10:36:34;;;;;;;28.90;25.80;;;7.50;99.90;;;;;;5053407;28;20455;-71
2021/11/19 10:39:36;;;;;;;30.00;27.17;;;7.40;99.90;;;;;;5053423;28;20902;-73
2021/11/19 10:42:57;;;;;;;29.20;26.07;;;7.50;99.90;;;;;;5053013;28;20479;-73
2021/11/19 10:46:04;;;;;;;26.80;24.00;;;7.70;99.90;;;;;;5053194;28;20463;-73
2021/11/19 10:48:49;;;;;;;26.00;23.80;;;8.00;99.90;;;;;;5053071;28;20447;-73
2021/11/19 10:51:56;;;;;;;26.53;24.00;;;8.10;99.90;;;;;;5052907;28;20968;-72
2021/11/19 10:54:55;;;;;;;25.07;22.67;;;8.40;99.90;;;;;;5053154;28;20447;-72
2021/11/19 10:58:14;;;;;;;25.50;22.47;;;8.60;99.90;;;;;;5052911;28;20455;-72
2021/11/19 11:00:52;;;;;;;23.20;20.77;;;8.80;99.90;;;;;;5040358;28;20460;-72
2021/11/19 11:03:22;;;;;;;24.97;22.43;;;8.70;99.90;;;;;;5052590;28;20849;-72
2021/11/19 11:05:57;;;;;;;22.63;20.63;;;8.80;99.90;;;;;;5052742;28;21045;-72
2021/11/19 11:08:27;;;;;;;24.97;20.73;;;9.00;99.90;;;;;;5052667;28;20445;-72
2021/11/19 11:10:57;;;;;;;22.40;20.50;;;9.50;99.90;;;;;;5052518;28;20889;-72
2021/11/19 11:13:32;;;;;;;21.30;19.53;;;9.80;99.90;;;;;;5052590;28;20448;-73
2021/11/19 11:16:01;;;;;;;21.90;20.00;;;10.00;99.90;;;;;;5052268;28;20448;-72
2021/11/19 11:18:31;;;;;;;22.83;20.93;;;10.20;99.90;;;;;;5052425;28;20454;-72
2021/11/19 11:21:22;;;;;;;23.33;21.10;;;10.70;99.90;;;;;;5052510;28;20447;-73
2021/11/19 11:24:17;;;;;;;22.70;20.43;;;11.10;99.90;;;;;;5043657;28;20902;-72
2021/11/19 11:26:47;;;;;;;22.30;20.50;;;11.30;99.90;;;;;;5045844;28;20460;-73
2021/11/19 11:29:36;;;;;;;22.10;20.40;;;11.30;99.90;;;;;;5052354;28;20459;-71
2021/11/19 11:32:16;;;;;;;24.77;22.33;;;11.30;99.90;;;;;;5027543;28;20825;-73
2021/11/19 11:35:00;;;;;;;23.00;20.97;;;11.30;99.90;;;;;;5052191;28;20456;-73
2021/11/19 11:37:53;;;;;;;23.83;21.97;;;11.50;99.90;;;;;;5052366;28;20455;-73
2021/11/19 11:40:27;;;;;;;23.63;21.30;;;11.10;99.90;;;;;;5051559;28;20456;-73
2021/11/19 11:43:16;;;;;;;23.97;21.63;;;11.40;99.90;;;;;;5052069;28;20518;-73
2021/11/19 11:45:45;;;;;;;27.00;24.30;;;11.70;99.90;;;;;;5052023;28;20445;-72
2021/11/19 11:48:25;;;;;;;24.23;21.80;;;12.30;99.90;;;;;;5051738;28;20444;-73
2021/11/19 11:50:59;;;;;;;27.20;24.43;;;12.80;99.90;;;;;;5051939;28;20517;-72
2021/11/19 11:53:33;;;;;;;26.87;24.17;;;13.50;99.90;;;;;;5051516;28;20475;-73
2021/11/19 11:56:22;;;;;;;30.57;24.60;;;13.90;99.90;;;;;;5051437;28;21243;-72
2021/11/19 11:58:59;;;;;;;25.67;23.27;;;13.90;99.90;;;;;;5051469;28;20452;-73
2021/11/19 12:01:35;;;;;;;25.43;23.23;;;13.70;99.90;;;;;;5051692;28;20448;-73
2021/11/19 12:04:07;;;;;;;27.23;24.70;;;13.70;99.90;;;;;;5051458;28;20468;-73
2021/11/19 12:06:39;;;;;;;24.07;21.97;;;13.80;99.90;;;;;;5051332;28;20810;-73
2021/11/19 12:09:22;;;;;;;26.20;23.93;;;14.70;99.90;;;;;;5051242;28;20448;-73
2021/11/19 12:12:28;;;;;;;25.33;22.97;;;14.60;99.80;;;;;;5051352;28;20452;-72
2021/11/19 12:15:15;;;;;;;24.67;22.63;;;14.40;99.80;;;;;;5051144;28;20448;-74
2021/11/19 12:17:52;;;;;;;25.07;22.80;;;13.70;99.90;;;;;;5051195;28;20443;-73
2021/11/19 12:20:26;;;;;;;24.30;22.30;;;13.30;99.90;;;;;;5051220;28;20448;-73
2021/11/19 12:22:59;;;;;;;24.47;22.43;;;13.20;99.90;;;;;;5050912;28;20969;-73
2021/11/19 12:26:01;;;;;;;22.20;20.50;;;13.10;99.90;;;;;;5051151;28;20938;-73
2021/11/19 12:28:33;;;;;;;25.03;22.70;;;13.30;99.90;;;;;;5050950;28;20498;-73
2021/11/19 12:31:10;;;;;;;27.00;24.40;;;13.00;99.90;;;;;;5051076;28;20468;-72
2021/11/19 12:33:41;;;;;;;27.13;24.77;;;12.10;99.90;;;;;;5050829;28;20436;-73
2021/11/19 12:36:17;;;;;;;27.03;24.80;;;11.30;99.90;;;;;;5050767;28;20452;-72
2021/11/19 12:38:46;;;;;;;26.03;23.83;;;10.80;99.90;;;;;;5050749;28;20451;-73
2021/11/19 12:41:18;;;;;;;24.47;22.27;;;10.80;99.90;;;;;;5050760;28;20806;-73
2021/11/19 12:44:25;;;;;;;25.93;23.63;;;10.90;99.90;;;;;;5050934;28;20484;-73
2021/11/19 12:47:06;;;;;;;26.57;24.27;;;10.70;99.90;;;;;;5048326;28;20461;-72
2021/11/19 12:50:05;;;;;;;25.27;22.77;;;10.70;99.90;;;;;;5050638;28;20444;-72
2021/11/19 12:52:37;;;;;;;25.67;23.37;;;10.90;99.90;;;;;;5049534;28;20478;-72
2021/11/19 12:55:19;;;;;;;26.43;23.90;;;10.90;99.90;;;;;;5050263;28;20460;-73
2021/11/19 12:58:02;;;;;;;23.93;21.83;;;10.80;99.90;;;;;;5050425;28;20949;-72
2021/11/19 13:00:47;;;;;;;26.60;23.80;;;10.80;99.90;;;;;;5050715;28;20470;-73